sensor_id;sensor_type;location;lat;lon;timestamp;temperature;humidity
28530;DHT22;15737;49.760;6.632;2022-08-11T00:01:23;18.40;55.60
28530;DHT22;15737;49.760;6.632;2022-08-11T00:03:56;18.40;55.90
28530;DHT22;15737;49.760;6.632;2022-08-11T00:06:31;18.30;55.80
28530;DHT22;15737;49.760;6.632;2022-08-11T00:08:58;18.30;56.00
28530;DHT22;15737;49.760;6.632;2022-08-11T00:11:51;18.20;56.10
28530;DHT22;15737;49.760;6.632;2022-08-11T00:14:23;18.20;56.40
28530;DHT22;15737;49.760;6.632;2022-08-11T00:17:02;18.10;56.40
28530;DHT22;15737;49.760;6.632;2022-08-11T00:19:34;18.10;56.70
28530;DHT22;15737;49.760;6.632;2022-08-11T00:22:02;18.00;56.80
28530;DHT22;15737;49.760;6.632;2022-08-11T00:24:33;18.00;56.80
28530;DHT22;15737;49.760;6.632;2022-08-11T00:26:59;18.00;56.90
28530;DHT22;15737;49.760;6.632;2022-08-11T00:31:57;18.00;57.00
28530;DHT22;15737;49.760;6.632;2022-08-11T00:34:28;18.00;57.00
28530;DHT22;15737;49.760;6.632;2022-08-11T00:37:03;17.90;57.00
28530;DHT22;15737;49.760;6.632;2022-08-11T00:39:35;17.80;57.10
28530;DHT22;15737;49.760;6.632;2022-08-11T00:45:26;17.60;57.70
28530;DHT22;15737;49.760;6.632;2022-08-11T00:53:54;17.40;58.40
28530;DHT22;15737;49.760;6.632;2022-08-11T00:59:31;17.00;59.90
28530;DHT22;15737;49.760;6.632;2022-08-11T01:02:38;16.90;60.50
28530;DHT22;15737;49.760;6.632;2022-08-11T01:10:46;16.90;60.30
28530;DHT22;15737;49.760;6.632;2022-08-11T01:16:37;17.00;60.30
28530;DHT22;15737;49.760;6.632;2022-08-11T01:19:41;17.00;60.50
28530;DHT22;15737;49.760;6.632;2022-08-11T01:22:38;17.00;60.60
28530;DHT22;15737;49.760;6.632;2022-08-11T01:28:22;17.00;60.20
28530;DHT22;15737;49.760;6.632;2022-08-11T01:31:17;16.90;60.00
28530;DHT22;15737;49.760;6.632;2022-08-11T01:42:51;16.70;60.40
28530;DHT22;15737;49.760;6.632;2022-08-11T01:55:13;16.60;61.50
28530;DHT22;15737;49.760;6.632;2022-08-11T01:57:59;16.50;61.80
28530;DHT22;15737;49.760;6.632;2022-08-11T02:00:29;16.50;62.10
28530;DHT22;15737;49.760;6.632;2022-08-11T02:11:17;16.50;61.60
28530;DHT22;15737;49.760;6.632;2022-08-11T02:14:15;16.40;62.00
28530;DHT22;15737;49.760;6.632;2022-08-11T02:20:00;16.20;62.60
28530;DHT22;15737;49.760;6.632;2022-08-11T02:23:12;16.10;63.00
28530;DHT22;15737;49.760;6.632;2022-08-11T02:29:19;16.10;62.90
28530;DHT22;15737;49.760;6.632;2022-08-11T02:31:55;16.20;62.90
28530;DHT22;15737;49.760;6.632;2022-08-11T02:35:01;16.20;63.50
28530;DHT22;15737;49.760;6.632;2022-08-11T02:40:10;16.00;64.20
28530;DHT22;15737;49.760;6.632;2022-08-11T02:43:06;16.00;64.20
28530;DHT22;15737;49.760;6.632;2022-08-11T02:54:16;15.90;65.10
28530;DHT22;15737;49.760;6.632;2022-08-11T02:56:58;15.90;65.00
28530;DHT22;15737;49.760;6.632;2022-08-11T03:07:32;15.80;65.70
28530;DHT22;15737;49.760;6.632;2022-08-11T03:12:55;15.60;66.10
28530;DHT22;15737;49.760;6.632;2022-08-11T03:15:47;15.70;66.20
28530;DHT22;15737;49.760;6.632;2022-08-11T03:18:41;15.60;67.20
28530;DHT22;15737;49.760;6.632;2022-08-11T03:21:34;15.60;66.70
28530;DHT22;15737;49.760;6.632;2022-08-11T03:24:21;15.50;67.00
28530;DHT22;15737;49.760;6.632;2022-08-11T03:30:50;15.50;67.60
28530;DHT22;15737;49.760;6.632;2022-08-11T03:36:27;15.50;67.70
28530;DHT22;15737;49.760;6.632;2022-08-11T03:47:07;15.40;67.70
28530;DHT22;15737;49.760;6.632;2022-08-11T03:50:11;15.40;67.70
28530;DHT22;15737;49.760;6.632;2022-08-11T03:58:31;15.30;68.00
28530;DHT22;15737;49.760;6.632;2022-08-11T04:01:36;15.30;68.30
28530;DHT22;15737;49.760;6.632;2022-08-11T04:10:13;15.20;68.80
28530;DHT22;15737;49.760;6.632;2022-08-11T04:16:06;15.10;69.10
28530;DHT22;15737;49.760;6.632;2022-08-11T04:22:01;15.00;69.00
28530;DHT22;15737;49.760;6.632;2022-08-11T04:27:45;15.20;69.30
28530;DHT22;15737;49.760;6.632;2022-08-11T04:30:49;15.20;68.90
28530;DHT22;15737;49.760;6.632;2022-08-11T04:33:48;15.30;68.90
28530;DHT22;15737;49.760;6.632;2022-08-11T04:36:34;15.40;68.80
28530;DHT22;15737;49.760;6.632;2022-08-11T04:39:37;15.60;68.20
28530;DHT22;15737;49.760;6.632;2022-08-11T04:48:05;16.70;64.70
28530;DHT22;15737;49.760;6.632;2022-08-11T04:51:30;17.00;63.70
28530;DHT22;15737;49.760;6.632;2022-08-11T04:57:34;18.30;59.60
28530;DHT22;15737;49.760;6.632;2022-08-11T05:00:25;19.00;57.90
28530;DHT22;15737;49.760;6.632;2022-08-11T05:03:45;19.80;56.30
28530;DHT22;15737;49.760;6.632;2022-08-11T05:09:15;20.90;53.90
28530;DHT22;15737;49.760;6.632;2022-08-11T05:12:08;21.60;52.70
28530;DHT22;15737;49.760;6.632;2022-08-11T05:14:53;22.10;51.50
28530;DHT22;15737;49.760;6.632;2022-08-11T05:20:50;23.50;48.70
28530;DHT22;15737;49.760;6.632;2022-08-11T05:23:39;24.20;47.50
28530;DHT22;15737;49.760;6.632;2022-08-11T05:26:25;24.90;46.40
28530;DHT22;15737;49.760;6.632;2022-08-11T05:32:22;26.00;44.10
28530;DHT22;15737;49.760;6.632;2022-08-11T05:35:06;26.70;42.90
28530;DHT22;15737;49.760;6.632;2022-08-11T05:37:40;27.00;42.20
28530;DHT22;15737;49.760;6.632;2022-08-11T05:40:13;27.50;41.40
28530;DHT22;15737;49.760;6.632;2022-08-11T05:43:00;28.10;40.60
28530;DHT22;15737;49.760;6.632;2022-08-11T05:45:58;29.00;39.50
28530;DHT22;15737;49.760;6.632;2022-08-11T05:48:43;29.90;38.70
28530;DHT22;15737;49.760;6.632;2022-08-11T05:51:37;30.70;37.70
28530;DHT22;15737;49.760;6.632;2022-08-11T05:54:23;31.20;37.10
28530;DHT22;15737;49.760;6.632;2022-08-11T05:57:09;32.00;36.10
28530;DHT22;15737;49.760;6.632;2022-08-11T05:59:44;33.00;35.00
28530;DHT22;15737;49.760;6.632;2022-08-11T06:02:11;33.70;34.10
28530;DHT22;15737;49.760;6.632;2022-08-11T06:04:37;33.70;33.90
28530;DHT22;15737;49.760;6.632;2022-08-11T06:07:10;33.70;34.10
28530;DHT22;15737;49.760;6.632;2022-08-11T06:09:48;33.70;34.10
28530;DHT22;15737;49.760;6.632;2022-08-11T06:12:29;33.60;34.50
28530;DHT22;15737;49.760;6.632;2022-08-11T06:15:00;34.10;33.90
28530;DHT22;15737;49.760;6.632;2022-08-11T06:17:28;34.20;33.80
28530;DHT22;15737;49.760;6.632;2022-08-11T06:20:10;34.50;33.10
28530;DHT22;15737;49.760;6.632;2022-08-11T06:22:38;35.00;32.50
28530;DHT22;15737;49.760;6.632;2022-08-11T06:25:07;35.10;32.20
28530;DHT22;15737;49.760;6.632;2022-08-11T06:27:36;36.00;31.50
28530;DHT22;15737;49.760;6.632;2022-08-11T06:30:04;36.50;30.90
28530;DHT22;15737;49.760;6.632;2022-08-11T06:32:45;36.30;30.90
28530;DHT22;15737;49.760;6.632;2022-08-11T06:43:20;39.10;28.70
28530;DHT22;15737;49.760;6.632;2022-08-11T06:45:59;40.00;27.90
28530;DHT22;15737;49.760;6.632;2022-08-11T06:48:33;40.40;27.60
28530;DHT22;15737;49.760;6.632;2022-08-11T06:51:02;40.30;27.80
28530;DHT22;15737;49.760;6.632;2022-08-11T06:56:07;38.70;28.50
28530;DHT22;15737;49.760;6.632;2022-08-11T06:58:53;39.10;28.20
28530;DHT22;15737;49.760;6.632;2022-08-11T07:02:04;39.60;27.70
28530;DHT22;15737;49.760;6.632;2022-08-11T07:04:48;39.40;27.80
28530;DHT22;15737;49.760;6.632;2022-08-11T07:13:22;39.90;27.50
28530;DHT22;15737;49.760;6.632;2022-08-11T07:16:07;40.10;27.30
28530;DHT22;15737;49.760;6.632;2022-08-11T07:18:35;39.90;27.40
28530;DHT22;15737;49.760;6.632;2022-08-11T07:24:19;41.00;26.70
28530;DHT22;15737;49.760;6.632;2022-08-11T07:27:08;40.90;26.80
28530;DHT22;15737;49.760;6.632;2022-08-11T07:29:54;41.10;26.60
28530;DHT22;15737;49.760;6.632;2022-08-11T07:32:33;41.50;26.40
28530;DHT22;15737;49.760;6.632;2022-08-11T07:37:40;43.00;25.40
28530;DHT22;15737;49.760;6.632;2022-08-11T07:40:07;43.40;25.10
28530;DHT22;15737;49.760;6.632;2022-08-11T07:42:33;43.90;24.90
28530;DHT22;15737;49.760;6.632;2022-08-11T07:45:05;44.20;24.60
28530;DHT22;15737;49.760;6.632;2022-08-11T07:47:52;44.40;24.40
28530;DHT22;15737;49.760;6.632;2022-08-11T07:50:42;44.70;24.20
28530;DHT22;15737;49.760;6.632;2022-08-11T07:53:28;44.60;24.10
28530;DHT22;15737;49.760;6.632;2022-08-11T07:55:56;44.50;24.10
28530;DHT22;15737;49.760;6.632;2022-08-11T07:58:24;44.80;24.00
28530;DHT22;15737;49.760;6.632;2022-08-11T08:01:10;45.10;23.70
28530;DHT22;15737;49.760;6.632;2022-08-11T08:03:57;44.60;23.90
28530;DHT22;15737;49.760;6.632;2022-08-11T08:06:41;44.40;24.00
28530;DHT22;15737;49.760;6.632;2022-08-11T08:09:26;44.90;23.80
28530;DHT22;15737;49.760;6.632;2022-08-11T08:12:11;44.80;23.90
28530;DHT22;15737;49.760;6.632;2022-08-11T08:14:56;44.70;23.90
28530;DHT22;15737;49.760;6.632;2022-08-11T08:17:42;45.30;23.60
28530;DHT22;15737;49.760;6.632;2022-08-11T08:20:20;45.00;23.80
28530;DHT22;15737;49.760;6.632;2022-08-11T08:22:50;45.10;23.70
28530;DHT22;15737;49.760;6.632;2022-08-11T08:25:32;45.00;23.70
28530;DHT22;15737;49.760;6.632;2022-08-11T08:28:01;45.40;23.60
28530;DHT22;15737;49.760;6.632;2022-08-11T08:30:28;46.00;23.20
28530;DHT22;15737;49.760;6.632;2022-08-11T08:35:43;45.30;23.40
28530;DHT22;15737;49.760;6.632;2022-08-11T08:38:10;45.10;23.60
28530;DHT22;15737;49.760;6.632;2022-08-11T08:40:40;45.30;23.40
28530;DHT22;15737;49.760;6.632;2022-08-11T08:43:08;45.80;23.20
28530;DHT22;15737;49.760;6.632;2022-08-11T08:48:14;45.90;23.10
28530;DHT22;15737;49.760;6.632;2022-08-11T08:50:47;46.00;23.00
28530;DHT22;15737;49.760;6.632;2022-08-11T08:53:35;44.80;23.50
28530;DHT22;15737;49.760;6.632;2022-08-11T08:56:04;44.00;23.80
28530;DHT22;15737;49.760;6.632;2022-08-11T08:58:34;43.80;23.90
28530;DHT22;15737;49.760;6.632;2022-08-11T09:01:01;44.10;23.70
28530;DHT22;15737;49.760;6.632;2022-08-11T09:03:27;44.50;23.60
28530;DHT22;15737;49.760;6.632;2022-08-11T09:05:54;44.80;23.40
28530;DHT22;15737;49.760;6.632;2022-08-11T09:08:21;44.80;23.40
28530;DHT22;15737;49.760;6.632;2022-08-11T09:10:47;43.90;23.90
28530;DHT22;15737;49.760;6.632;2022-08-11T09:13:36;42.80;24.50
28530;DHT22;15737;49.760;6.632;2022-08-11T09:16:08;43.40;24.20
28530;DHT22;15737;49.760;6.632;2022-08-11T09:18:36;43.70;23.90
28530;DHT22;15737;49.760;6.632;2022-08-11T09:21:05;42.60;24.20
28530;DHT22;15737;49.760;6.632;2022-08-11T09:23:31;41.80;24.50
28530;DHT22;15737;49.760;6.632;2022-08-11T09:26:16;41.70;24.40
28530;DHT22;15737;49.760;6.632;2022-08-11T09:29:09;42.20;24.20
28530;DHT22;15737;49.760;6.632;2022-08-11T09:31:35;42.30;24.00
28530;DHT22;15737;49.760;6.632;2022-08-11T09:34:02;42.60;24.00
28530;DHT22;15737;49.760;6.632;2022-08-11T09:36:28;42.80;24.30
28530;DHT22;15737;49.760;6.632;2022-08-11T09:39:13;42.70;23.90
28530;DHT22;15737;49.760;6.632;2022-08-11T09:42:00;44.00;23.30
28530;DHT22;15737;49.760;6.632;2022-08-11T09:44:26;44.40;23.20
28530;DHT22;15737;49.760;6.632;2022-08-11T09:47:11;44.20;23.20
28530;DHT22;15737;49.760;6.632;2022-08-11T09:49:42;44.10;23.20
28530;DHT22;15737;49.760;6.632;2022-08-11T09:52:21;43.60;23.40
28530;DHT22;15737;49.760;6.632;2022-08-11T09:54:48;43.80;23.20
28530;DHT22;15737;49.760;6.632;2022-08-11T09:57:19;43.80;22.90
28530;DHT22;15737;49.760;6.632;2022-08-11T10:00:08;42.90;23.60
28530;DHT22;15737;49.760;6.632;2022-08-11T10:02:40;42.60;23.70
28530;DHT22;15737;49.760;6.632;2022-08-11T10:05:08;42.20;23.60
28530;DHT22;15737;49.760;6.632;2022-08-11T10:07:53;41.10;24.40
28530;DHT22;15737;49.760;6.632;2022-08-11T10:10:20;41.60;23.90
28530;DHT22;15737;49.760;6.632;2022-08-11T10:12:57;41.20;24.00
28530;DHT22;15737;49.760;6.632;2022-08-11T10:15:24;40.10;24.30
28530;DHT22;15737;49.760;6.632;2022-08-11T10:20:44;37.90;25.20
28530;DHT22;15737;49.760;6.632;2022-08-11T10:23:15;37.10;25.20
28530;DHT22;15737;49.760;6.632;2022-08-11T10:25:59;37.00;25.70
28530;DHT22;15737;49.760;6.632;2022-08-11T10:28:45;37.70;25.40
28530;DHT22;15737;49.760;6.632;2022-08-11T10:31:11;37.90;25.20
28530;DHT22;15737;49.760;6.632;2022-08-11T10:34:11;38.20;25.00
28530;DHT22;15737;49.760;6.632;2022-08-11T10:36:40;38.50;25.00
28530;DHT22;15737;49.760;6.632;2022-08-11T10:39:19;38.80;24.80
28530;DHT22;15737;49.760;6.632;2022-08-11T10:41:46;38.70;24.80
28530;DHT22;15737;49.760;6.632;2022-08-11T10:44:36;38.80;24.70
28530;DHT22;15737;49.760;6.632;2022-08-11T10:47:04;37.90;25.30
28530;DHT22;15737;49.760;6.632;2022-08-11T10:49:49;37.20;25.60
28530;DHT22;15737;49.760;6.632;2022-08-11T10:52:36;36.80;25.90
28530;DHT22;15737;49.760;6.632;2022-08-11T10:55:21;36.50;26.20
28530;DHT22;15737;49.760;6.632;2022-08-11T10:58:06;36.70;26.00
28530;DHT22;15737;49.760;6.632;2022-08-11T11:00:52;37.30;25.80
28530;DHT22;15737;49.760;6.632;2022-08-11T11:03:23;37.80;25.60
28530;DHT22;15737;49.760;6.632;2022-08-11T11:05:51;37.60;25.80
28530;DHT22;15737;49.760;6.632;2022-08-11T11:08:20;36.80;25.60
28530;DHT22;15737;49.760;6.632;2022-08-11T11:11:14;36.00;26.20
28530;DHT22;15737;49.760;6.632;2022-08-11T11:13:43;36.00;26.40
28530;DHT22;15737;49.760;6.632;2022-08-11T11:16:29;35.90;26.60
28530;DHT22;15737;49.760;6.632;2022-08-11T11:19:14;36.10;26.60
28530;DHT22;15737;49.760;6.632;2022-08-11T11:21:43;35.90;26.60
28530;DHT22;15737;49.760;6.632;2022-08-11T11:24:44;36.10;26.60
28530;DHT22;15737;49.760;6.632;2022-08-11T11:30:18;37.40;25.70
28530;DHT22;15737;49.760;6.632;2022-08-11T11:32:55;36.90;25.80
28530;DHT22;15737;49.760;6.632;2022-08-11T11:35:37;36.50;26.30
28530;DHT22;15737;49.760;6.632;2022-08-11T11:38:10;37.00;25.90
28530;DHT22;15737;49.760;6.632;2022-08-11T11:40:36;36.20;25.40
28530;DHT22;15737;49.760;6.632;2022-08-11T11:43:03;35.30;26.30
28530;DHT22;15737;49.760;6.632;2022-08-11T11:45:30;34.90;26.50
28530;DHT22;15737;49.760;6.632;2022-08-11T11:47:58;34.70;26.10
28530;DHT22;15737;49.760;6.632;2022-08-11T11:50:33;34.30;26.70
28530;DHT22;15737;49.760;6.632;2022-08-11T11:53:01;34.70;26.60
28530;DHT22;15737;49.760;6.632;2022-08-11T11:55:28;35.40;26.30
28530;DHT22;15737;49.760;6.632;2022-08-11T11:57:56;36.10;26.00
28530;DHT22;15737;49.760;6.632;2022-08-11T12:00:42;35.30;26.00
28530;DHT22;15737;49.760;6.632;2022-08-11T12:03:28;34.30;27.10
28530;DHT22;15737;49.760;6.632;2022-08-11T12:05:54;34.20;27.30
28530;DHT22;15737;49.760;6.632;2022-08-11T12:08:21;34.60;27.40
28530;DHT22;15737;49.760;6.632;2022-08-11T12:10:54;35.30;27.10
28530;DHT22;15737;49.760;6.632;2022-08-11T12:13:41;35.90;26.80
28530;DHT22;15737;49.760;6.632;2022-08-11T12:16:09;36.50;26.60
28530;DHT22;15737;49.760;6.632;2022-08-11T12:18:36;36.40;26.00
28530;DHT22;15737;49.760;6.632;2022-08-11T12:21:04;35.70;26.60
28530;DHT22;15737;49.760;6.632;2022-08-11T12:23:31;35.40;26.90
28530;DHT22;15737;49.760;6.632;2022-08-11T12:26:17;35.30;26.80
28530;DHT22;15737;49.760;6.632;2022-08-11T12:29:02;35.00;26.90
28530;DHT22;15737;49.760;6.632;2022-08-11T12:31:30;34.80;27.00
28530;DHT22;15737;49.760;6.632;2022-08-11T12:34:08;34.80;27.10
28530;DHT22;15737;49.760;6.632;2022-08-11T12:36:45;35.50;26.80
28530;DHT22;15737;49.760;6.632;2022-08-11T12:39:12;36.00;26.50
28530;DHT22;15737;49.760;6.632;2022-08-11T12:41:42;35.60;26.40
28530;DHT22;15737;49.760;6.632;2022-08-11T12:44:28;35.30;26.90
28530;DHT22;15737;49.760;6.632;2022-08-11T12:47:18;35.30;27.40
28530;DHT22;15737;49.760;6.632;2022-08-11T12:49:48;35.20;27.10
28530;DHT22;15737;49.760;6.632;2022-08-11T12:55:20;35.60;27.00
28530;DHT22;15737;49.760;6.632;2022-08-11T12:58:07;35.50;27.20
28530;DHT22;15737;49.760;6.632;2022-08-11T13:00:43;35.50;27.30
28530;DHT22;15737;49.760;6.632;2022-08-11T13:03:32;35.20;27.30
28530;DHT22;15737;49.760;6.632;2022-08-11T13:06:18;35.70;27.20
28530;DHT22;15737;49.760;6.632;2022-08-11T13:08:45;36.10;26.80
28530;DHT22;15737;49.760;6.632;2022-08-11T13:11:11;36.00;26.80
28530;DHT22;15737;49.760;6.632;2022-08-11T13:13:56;35.70;26.90
28530;DHT22;15737;49.760;6.632;2022-08-11T13:16:24;35.10;27.30
28530;DHT22;15737;49.760;6.632;2022-08-11T13:18:51;35.00;27.40
28530;DHT22;15737;49.760;6.632;2022-08-11T13:21:17;35.10;27.50
28530;DHT22;15737;49.760;6.632;2022-08-11T13:23:44;35.00;27.60
28530;DHT22;15737;49.760;6.632;2022-08-11T13:26:10;34.90;27.70
28530;DHT22;15737;49.760;6.632;2022-08-11T13:28:36;35.00;27.80
28530;DHT22;15737;49.760;6.632;2022-08-11T13:31:03;35.10;27.60
28530;DHT22;15737;49.760;6.632;2022-08-11T13:33:41;35.30;27.50
28530;DHT22;15737;49.760;6.632;2022-08-11T13:36:08;34.70;27.50
28530;DHT22;15737;49.760;6.632;2022-08-11T13:38:34;34.50;27.80
28530;DHT22;15737;49.760;6.632;2022-08-11T13:41:00;34.80;27.60
28530;DHT22;15737;49.760;6.632;2022-08-11T13:43:26;34.60;27.30
28530;DHT22;15737;49.760;6.632;2022-08-11T13:45:53;34.50;27.70
28530;DHT22;15737;49.760;6.632;2022-08-11T13:48:40;34.60;27.70
28530;DHT22;15737;49.760;6.632;2022-08-11T13:51:08;35.30;27.60
28530;DHT22;15737;49.760;6.632;2022-08-11T13:53:59;36.00;27.30
28530;DHT22;15737;49.760;6.632;2022-08-11T13:56:26;36.30;27.10
28530;DHT22;15737;49.760;6.632;2022-08-11T13:58:53;35.90;27.40
28530;DHT22;15737;49.760;6.632;2022-08-11T14:01:20;35.50;27.40
28530;DHT22;15737;49.760;6.632;2022-08-11T14:03:46;35.00;27.70
28530;DHT22;15737;49.760;6.632;2022-08-11T14:06:14;35.10;27.80
28530;DHT22;15737;49.760;6.632;2022-08-11T14:08:42;35.60;27.50
28530;DHT22;15737;49.760;6.632;2022-08-11T14:11:09;35.90;27.50
28530;DHT22;15737;49.760;6.632;2022-08-11T14:13:54;35.90;27.30
28530;DHT22;15737;49.760;6.632;2022-08-11T14:16:31;35.80;27.50
28530;DHT22;15737;49.760;6.632;2022-08-11T14:19:01;35.50;27.70
28530;DHT22;15737;49.760;6.632;2022-08-11T14:21:29;35.40;27.80
28530;DHT22;15737;49.760;6.632;2022-08-11T14:24:21;35.10;27.90
28530;DHT22;15737;49.760;6.632;2022-08-11T14:26:48;34.50;28.20
28530;DHT22;15737;49.760;6.632;2022-08-11T14:29:22;34.40;28.40
28530;DHT22;15737;49.760;6.632;2022-08-11T14:31:52;34.90;28.20
28530;DHT22;15737;49.760;6.632;2022-08-11T14:34:20;35.10;28.10
28530;DHT22;15737;49.760;6.632;2022-08-11T14:36:50;35.10;28.10
28530;DHT22;15737;49.760;6.632;2022-08-11T14:39:20;34.50;28.50
28530;DHT22;15737;49.760;6.632;2022-08-11T14:41:57;34.20;28.90
28530;DHT22;15737;49.760;6.632;2022-08-11T14:44:45;34.20;28.80
28530;DHT22;15737;49.760;6.632;2022-08-11T14:47:36;34.20;28.80
28530;DHT22;15737;49.760;6.632;2022-08-11T14:50:03;34.00;29.10
28530;DHT22;15737;49.760;6.632;2022-08-11T14:52:32;33.80;29.10
28530;DHT22;15737;49.760;6.632;2022-08-11T14:55:00;33.60;29.10
28530;DHT22;15737;49.760;6.632;2022-08-11T14:57:46;33.80;29.10
28530;DHT22;15737;49.760;6.632;2022-08-11T15:00:13;34.10;28.90
28530;DHT22;15737;49.760;6.632;2022-08-11T15:02:47;33.80;29.10
28530;DHT22;15737;49.760;6.632;2022-08-11T15:05:31;33.40;29.20
28530;DHT22;15737;49.760;6.632;2022-08-11T15:07:58;33.50;29.20
28530;DHT22;15737;49.760;6.632;2022-08-11T15:10:24;33.60;29.20
28530;DHT22;15737;49.760;6.632;2022-08-11T15:12:50;33.30;29.10
28530;DHT22;15737;49.760;6.632;2022-08-11T15:15:17;33.00;29.20
28530;DHT22;15737;49.760;6.632;2022-08-11T15:18:04;32.70;29.20
28530;DHT22;15737;49.760;6.632;2022-08-11T15:20:32;32.30;29.30
28530;DHT22;15737;49.760;6.632;2022-08-11T15:23:16;32.40;29.30
28530;DHT22;15737;49.760;6.632;2022-08-11T15:28:38;32.80;28.90
28530;DHT22;15737;49.760;6.632;2022-08-11T15:31:25;33.40;28.70
28530;DHT22;15737;49.760;6.632;2022-08-11T15:33:54;33.90;28.30
28530;DHT22;15737;49.760;6.632;2022-08-11T15:36:41;33.60;28.40
28530;DHT22;15737;49.760;6.632;2022-08-11T15:39:31;33.20;28.70
28530;DHT22;15737;49.760;6.632;2022-08-11T15:42:02;32.40;29.30
28530;DHT22;15737;49.760;6.632;2022-08-11T15:44:54;32.30;29.50
28530;DHT22;15737;49.760;6.632;2022-08-11T15:47:47;32.30;29.60
28530;DHT22;15737;49.760;6.632;2022-08-11T15:50:17;32.60;29.60
28530;DHT22;15737;49.760;6.632;2022-08-11T15:52:57;32.60;29.70
28530;DHT22;15737;49.760;6.632;2022-08-11T15:55:23;32.50;29.70
28530;DHT22;15737;49.760;6.632;2022-08-11T15:57:52;32.40;29.80
28530;DHT22;15737;49.760;6.632;2022-08-11T16:00:49;32.20;30.10
28530;DHT22;15737;49.760;6.632;2022-08-11T16:03:50;31.90;30.50
28530;DHT22;15737;49.760;6.632;2022-08-11T16:06:38;31.60;30.80
28530;DHT22;15737;49.760;6.632;2022-08-11T16:09:06;31.80;30.60
28530;DHT22;15737;49.760;6.632;2022-08-11T16:11:34;31.80;30.50
28530;DHT22;15737;49.760;6.632;2022-08-11T16:14:03;32.00;30.50
28530;DHT22;15737;49.760;6.632;2022-08-11T16:16:49;32.30;30.30
28530;DHT22;15737;49.760;6.632;2022-08-11T16:19:18;32.60;30.20
28530;DHT22;15737;49.760;6.632;2022-08-11T16:21:46;32.60;30.30
28530;DHT22;15737;49.760;6.632;2022-08-11T16:24:17;32.50;30.30
28530;DHT22;15737;49.760;6.632;2022-08-11T16:26:44;32.40;30.40
28530;DHT22;15737;49.760;6.632;2022-08-11T16:29:11;32.10;30.50
28530;DHT22;15737;49.760;6.632;2022-08-11T16:31:37;31.90;31.00
28530;DHT22;15737;49.760;6.632;2022-08-11T16:34:06;32.00;31.00
28530;DHT22;15737;49.760;6.632;2022-08-11T16:36:53;32.20;30.90
28530;DHT22;15737;49.760;6.632;2022-08-11T16:39:39;32.20;31.00
28530;DHT22;15737;49.760;6.632;2022-08-11T16:42:06;32.60;30.40
28530;DHT22;15737;49.760;6.632;2022-08-11T16:44:53;32.80;30.40
28530;DHT22;15737;49.760;6.632;2022-08-11T16:47:40;32.80;30.40
28530;DHT22;15737;49.760;6.632;2022-08-11T16:50:08;32.80;30.40
28530;DHT22;15737;49.760;6.632;2022-08-11T16:52:34;33.10;30.20
28530;DHT22;15737;49.760;6.632;2022-08-11T16:54:59;32.80;30.20
28530;DHT22;15737;49.760;6.632;2022-08-11T16:57:31;32.00;30.80
28530;DHT22;15737;49.760;6.632;2022-08-11T17:00:17;31.40;32.10
28530;DHT22;15737;49.760;6.632;2022-08-11T17:02:50;31.80;31.40
28530;DHT22;15737;49.760;6.632;2022-08-11T17:05:49;32.20;31.10
28530;DHT22;15737;49.760;6.632;2022-08-11T17:08:56;32.30;30.60
28530;DHT22;15737;49.760;6.632;2022-08-11T17:11:48;32.10;30.80
28530;DHT22;15737;49.760;6.632;2022-08-11T17:14:57;32.20;30.80
28530;DHT22;15737;49.760;6.632;2022-08-11T17:17:27;32.20;30.70
28530;DHT22;15737;49.760;6.632;2022-08-11T17:19:58;32.30;30.60
28530;DHT22;15737;49.760;6.632;2022-08-11T17:22:25;32.50;30.50
28530;DHT22;15737;49.760;6.632;2022-08-11T17:25:12;32.20;30.50
28530;DHT22;15737;49.760;6.632;2022-08-11T17:27:38;31.80;31.10
28530;DHT22;15737;49.760;6.632;2022-08-11T17:30:06;31.70;31.20
28530;DHT22;15737;49.760;6.632;2022-08-11T17:32:35;31.60;31.20
28530;DHT22;15737;49.760;6.632;2022-08-11T17:35:22;31.60;31.10
28530;DHT22;15737;49.760;6.632;2022-08-11T17:40:35;31.40;31.40
28530;DHT22;15737;49.760;6.632;2022-08-11T17:43:05;31.40;31.50
28530;DHT22;15737;49.760;6.632;2022-08-11T17:45:50;31.50;31.30
28530;DHT22;15737;49.760;6.632;2022-08-11T17:48:37;31.50;31.30
28530;DHT22;15737;49.760;6.632;2022-08-11T17:51:06;31.40;31.40
28530;DHT22;15737;49.760;6.632;2022-08-11T17:53:43;31.30;31.50
28530;DHT22;15737;49.760;6.632;2022-08-11T17:56:30;31.00;31.60
28530;DHT22;15737;49.760;6.632;2022-08-11T17:59:16;31.00;31.70
28530;DHT22;15737;49.760;6.632;2022-08-11T18:02:03;30.90;31.60
28530;DHT22;15737;49.760;6.632;2022-08-11T18:04:55;30.90;31.60
28530;DHT22;15737;49.760;6.632;2022-08-11T18:07:21;31.00;31.60
28530;DHT22;15737;49.760;6.632;2022-08-11T18:10:07;30.90;31.70
28530;DHT22;15737;49.760;6.632;2022-08-11T18:12:54;30.70;31.80
28530;DHT22;15737;49.760;6.632;2022-08-11T18:15:42;30.60;32.00
28530;DHT22;15737;49.760;6.632;2022-08-11T18:18:27;30.30;32.20
28530;DHT22;15737;49.760;6.632;2022-08-11T18:21:14;30.20;32.50
28530;DHT22;15737;49.760;6.632;2022-08-11T18:24:11;30.00;32.80
28530;DHT22;15737;49.760;6.632;2022-08-11T18:26:59;29.90;33.00
28530;DHT22;15737;49.760;6.632;2022-08-11T18:29:44;29.80;33.10
28530;DHT22;15737;49.760;6.632;2022-08-11T18:32:31;29.60;33.20
28530;DHT22;15737;49.760;6.632;2022-08-11T18:35:18;29.40;33.50
28530;DHT22;15737;49.760;6.632;2022-08-11T18:38:05;29.30;33.70
28530;DHT22;15737;49.760;6.632;2022-08-11T18:40:52;29.20;33.80
28530;DHT22;15737;49.760;6.632;2022-08-11T18:43:38;29.10;33.80
28530;DHT22;15737;49.760;6.632;2022-08-11T18:46:25;29.00;34.00
28530;DHT22;15737;49.760;6.632;2022-08-11T18:49:14;28.80;34.20
28530;DHT22;15737;49.760;6.632;2022-08-11T18:52:00;28.70;34.40
28530;DHT22;15737;49.760;6.632;2022-08-11T18:54:47;28.50;34.70
28530;DHT22;15737;49.760;6.632;2022-08-11T18:57:35;28.40;34.90
28530;DHT22;15737;49.760;6.632;2022-08-11T19:00:22;28.10;35.20
28530;DHT22;15737;49.760;6.632;2022-08-11T19:03:07;27.50;36.50
28530;DHT22;15737;49.760;6.632;2022-08-11T19:05:53;26.80;38.00
28530;DHT22;15737;49.760;6.632;2022-08-11T19:08:41;26.30;38.90
28530;DHT22;15737;49.760;6.632;2022-08-11T19:11:30;25.80;39.70
28530;DHT22;15737;49.760;6.632;2022-08-11T19:14:15;25.50;40.30
28530;DHT22;15737;49.760;6.632;2022-08-11T19:17:03;25.20;41.00
28530;DHT22;15737;49.760;6.632;2022-08-11T19:19:49;25.10;41.30
28530;DHT22;15737;49.760;6.632;2022-08-11T19:22:34;24.90;41.60
28530;DHT22;15737;49.760;6.632;2022-08-11T19:25:20;24.70;42.00
28530;DHT22;15737;49.760;6.632;2022-08-11T19:28:06;24.50;42.40
28530;DHT22;15737;49.760;6.632;2022-08-11T19:30:52;24.40;42.90
28530;DHT22;15737;49.760;6.632;2022-08-11T19:33:38;24.20;43.20
28530;DHT22;15737;49.760;6.632;2022-08-11T19:36:23;24.10;43.40
28530;DHT22;15737;49.760;6.632;2022-08-11T19:39:10;24.00;43.60